Portada
METAR-TAF:

METAR-TAF

Aeropuertos :

Base Aérea de Torrejón / Aeropuerto de Madrid-Torrejón

Madrid-Torrejón, España

latitud: 40-29N, longitud: 003-27W, altitud: 607 m

Observación

El informe se hizo hace 26 minutos, a las 13:30 UTC
Viento 3 kt del oeste
Temperatura 22°C
Humedad 29%
Presión 1015 hPa
Visibilidad 10 km o más
sin nubes por debajo de 1500 m y sin presencia de cumulonimbus.

METAR: LETO 261330Z 26003KT CAVOK 22/03 Q1015 NOSIG

Hora: 15:56 (13:56 UTC)

Pronóstico

El informe se hizo hace 2 horas y 56 minutos, a las 11:00 UTC
Pronóstico válido del 26 a las 12 UTC al 27 a las 12 UTC
Viento 5 kt con dirección variable
Visibilidad 10 km o más
Escasas nubes a una altura de 4500 ft
Evolucionando progresivamente
del 27 a las 11 UTC al 27 a las 12 UTC
Viento 11 kt del noroeste

TAF: LETO 261100Z 2612/2712 VRB05KT 9999 FEW045 TX24/2615Z TN08/2706Z BECMG 2711/2712 31011KT

Observaciones y pronósticos meteorológicos de más de 4000 aeropuertos (mensajes METAR y TAF).

Los puntos amarillos y rojos representan las estaciones disponibles.

Ponga el ratón en el punto deseado para ver el nombre de la estación.

Haga clic para ver las observaciones y los pronósticos meteorológicos.

Para cambiar el mapa : haga clic en los botones verdes con una cruz de color negro para hacer un zoom, en el botón verde con un guión para alejar o en las flechas verdes para mapas adyacentes.


METAR-TAF: